Time;durP1;ratioP1;P1;durP2;ratioP2;P2;SDS_P1;SDS_P2;PMS_P1;PMS_P2;Temp;Humidity;BMP_temperature;BMP_pressure;BME280_temperature;BME280_humidity;BME280_pressure;Samples;Min_cycle;Max_cycle;Signal;HPM_P1;HPM_P2
2021/12/24 00:04:12;;;;;;;50.63;22.02;;;;;;;;;;10260685;28;20225;-80
2021/12/24 00:09:20;;;;;;;37.67;19.33;;;;;;;;;;10265879;28;20300;-80
2021/12/24 00:14:24;;;;;;;35.03;17.83;;;;;;;;;;10267227;28;20216;-81
2021/12/24 00:19:44;;;;;;;27.48;16.92;;;;;;;;;;10269115;28;20993;-81
2021/12/24 00:35:33;;;;;;;25.65;15.70;;;;;;;;;;10268316;28;20223;-81
2021/12/24 00:40:36;;;;;;;25.73;14.90;;;;;;;;;;10276933;28;20224;-81
2021/12/24 00:45:39;;;;;;;23.48;14.90;;;;;;;;;;10265636;28;20321;-82
2021/12/24 00:56:21;;;;;;;22.73;12.52;;;;;;;;;;10142712;29;20325;-81
2021/12/24 01:01:22;;;;;;;22.02;12.95;;;;;;;;;;10157569;29;20235;-81
2021/12/24 01:06:24;;;;;;;20.35;12.88;;;;;;;;;;10154662;29;20203;-81
2021/12/24 01:11:27;;;;;;;17.67;10.88;;;;;;;;;;10159997;29;20203;-81
2021/12/24 01:16:39;;;;;;;17.63;11.27;;;;;;;;;;10157970;29;21052;-79
2021/12/24 01:27:26;;;;;;;17.40;11.30;;;;;;;;;;10230848;28;20708;-80
2021/12/24 01:42:58;;;;;;;11.93;9.43;;;;;;;;;;10281118;28;20289;-79
2021/12/24 01:48:04;;;;;;;11.68;9.18;;;;;;;;;;10263625;28;20778;-79
2021/12/24 01:53:07;;;;;;;8.93;8.00;;;;;;;;;;10257099;28;20300;-79
2021/12/24 01:58:09;;;;;;;10.48;8.63;;;;;;;;;;10274182;28;20252;-80
2021/12/24 02:03:11;;;;;;;10.77;8.90;;;;;;;;;;10272391;28;20283;-79
2021/12/24 02:08:13;;;;;;;10.73;8.35;;;;;;;;;;10261396;28;20240;-80
2021/12/24 02:13:14;;;;;;;11.50;8.85;;;;;;;;;;10277352;28;21198;-79
2021/12/24 02:28:17;;;;;;;8.25;7.45;;;;;;;;;;10273161;28;20274;-80
2021/12/24 02:29:25;;;;;;;8.45;6.97;;;;;;;;;;10277431;28;20268;-79
2021/12/24 02:34:27;;;;;;;8.73;7.82;;;;;;;;;;10243803;28;20232;-79
2021/12/24 02:39:28;;;;;;;8.60;7.63;;;;;;;;;;10274599;28;20217;-79
2021/12/24 02:44:29;;;;;;;9.05;8.15;;;;;;;;;;10255490;28;21190;-80
2021/12/24 02:54:50;;;;;;;8.93;7.97;;;;;;;;;;10271822;28;20209;-80
2021/12/24 02:59:59;;;;;;;7.38;6.43;;;;;;;;;;10256202;28;20257;-81
2021/12/24 03:05:01;;;;;;;8.57;7.40;;;;;;;;;;10263209;28;20245;-80
2021/12/24 03:10:03;;;;;;;8.55;7.22;;;;;;;;;;10256571;28;20205;-79
2021/12/24 03:15:05;;;;;;;7.75;6.68;;;;;;;;;;10252806;28;20208;-80
2021/12/24 03:20:10;;;;;;;7.50;6.80;;;;;;;;;;10271695;28;20208;-80
2021/12/24 03:25:11;;;;;;;6.90;6.25;;;;;;;;;;10260443;28;20216;-80
2021/12/24 03:30:13;;;;;;;5.40;5.03;;;;;;;;;;10270215;28;20210;-80
2021/12/24 03:35:14;;;;;;;4.90;4.60;;;;;;;;;;10255727;28;20239;-79
2021/12/24 03:40:15;;;;;;;5.57;5.10;;;;;;;;;;10249577;28;20273;-80
2021/12/24 03:45:28;;;;;;;5.47;4.97;;;;;;;;;;10251194;28;20197;-80
2021/12/24 03:50:47;;;;;;;6.03;5.57;;;;;;;;;;10261088;28;20205;-80
2021/12/24 03:55:48;;;;;;;4.18;3.88;;;;;;;;;;10253726;28;20215;-80
2021/12/24 04:00:49;;;;;;;6.03;5.20;;;;;;;;;;10259280;28;20230;-79
2021/12/24 04:06:11;;;;;;;5.03;4.70;;;;;;;;;;10277118;28;20200;-80
2021/12/24 04:11:30;;;;;;;4.68;4.38;;;;;;;;;;10264004;28;20661;-79
2021/12/24 04:16:31;;;;;;;4.43;4.22;;;;;;;;;;10260348;28;20212;-79
2021/12/24 04:26:55;;;;;;;4.72;4.53;;;;;;;;;;10265992;28;20216;-79
2021/12/24 04:32:09;;;;;;;3.33;3.17;;;;;;;;;;10253860;28;20284;-79
2021/12/24 04:38:05;;;;;;;3.90;3.70;;;;;;;;;;10272691;28;20253;-80
2021/12/24 05:04:26;;;;;;;1999.90;999.90;;;;;;;;;;10251022;28;20667;-80
2021/12/24 05:09:29;;;;;;;3.38;3.20;;;;;;;;;;10266396;28;20236;-82
2021/12/24 05:14:31;;;;;;;3.60;3.40;;;;;;;;;;10260061;28;20206;-82
2021/12/24 05:25:18;;;;;;;3.42;3.22;;;;;;;;;;10283416;28;20299;-82
2021/12/24 05:30:19;;;;;;;3.53;3.40;;;;;;;;;;10280108;28;20204;-81
2021/12/24 05:35:21;;;;;;;3.15;3.05;;;;;;;;;;10275790;28;20585;-81
2021/12/24 05:40:22;;;;;;;2.75;2.70;;;;;;;;;;10277779;28;20284;-82
2021/12/24 05:45:24;;;;;;;3.03;2.92;;;;;;;;;;10276021;28;20217;-83
2021/12/24 05:50:51;;;;;;;3.17;3.03;;;;;;;;;;10280876;28;20193;-80
2021/12/24 05:56:24;;;;;;;3.28;3.17;;;;;;;;;;10243610;28;20197;-80
2021/12/24 06:01:38;;;;;;;2.97;2.80;;;;;;;;;;10276883;28;20217;-80
2021/12/24 06:06:39;;;;;;;2.60;2.60;;;;;;;;;;10291452;28;20204;-82
2021/12/24 06:11:40;;;;;;;2.30;2.25;;;;;;;;;;10286066;28;20484;-81
2021/12/24 06:16:48;;;;;;;2.30;2.30;;;;;;;;;;10289268;28;20217;-81
2021/12/24 06:21:49;;;;;;;2.15;2.15;;;;;;;;;;10269172;28;20221;-81
2021/12/24 06:26:51;;;;;;;2.97;2.90;;;;;;;;;;10281917;28;20213;-81
2021/12/24 06:31:52;;;;;;;2.72;2.63;;;;;;;;;;10280757;28;20213;-80
2021/12/24 06:36:53;;;;;;;2.50;2.50;;;;;;;;;;10268375;28;20202;-81
2021/12/24 06:41:54;;;;;;;3.00;2.83;;;;;;;;;;10278785;28;20227;-80
2021/12/24 06:46:56;;;;;;;4.22;4.03;;;;;;;;;;10272023;28;20667;-81
2021/12/24 06:51:57;;;;;;;6.05;5.53;;;;;;;;;;10287603;28;20205;-80
2021/12/24 06:56:58;;;;;;;6.05;5.68;;;;;;;;;;10267652;28;20221;-80
2021/12/24 07:01:59;;;;;;;5.28;4.93;;;;;;;;;;10270045;28;20267;-80
2021/12/24 07:07:00;;;;;;;3.20;2.95;;;;;;;;;;10284644;28;20768;-80
2021/12/24 07:12:01;;;;;;;2.40;2.40;;;;;;;;;;10293028;28;20284;-81
2021/12/24 07:17:02;;;;;;;3.58;2.53;;;;;;;;;;10286715;28;20190;-80
2021/12/24 07:22:04;;;;;;;2.22;2.22;;;;;;;;;;10287745;28;20209;-80
2021/12/24 07:27:05;;;;;;;2.53;2.42;;;;;;;;;;10280605;28;20216;-80
2021/12/24 07:32:06;;;;;;;2.78;2.72;;;;;;;;;;10273461;28;20291;-80
2021/12/24 07:37:07;;;;;;;2.47;2.47;;;;;;;;;;10285828;28;20248;-80
2021/12/24 07:42:09;;;;;;;3.42;3.33;;;;;;;;;;10278269;28;20219;-80
2021/12/24 07:47:16;;;;;;;3.85;3.75;;;;;;;;;;10293715;28;20291;-80
2021/12/24 07:52:18;;;;;;;3.90;3.80;;;;;;;;;;10272277;28;20650;-80
2021/12/24 07:57:19;;;;;;;4.05;3.90;;;;;;;;;;10269593;28;20220;-80
2021/12/24 08:02:25;;;;;;;4.80;4.53;;;;;;;;;;10289520;28;20228;-83
2021/12/24 08:07:27;;;;;;;5.40;5.10;;;;;;;;;;10293573;28;20204;-81
2021/12/24 08:12:28;;;;;;;5.45;5.15;;;;;;;;;;10293077;28;20232;-81
2021/12/24 08:17:29;;;;;;;6.25;5.65;;;;;;;;;;10289945;28;20322;-83
2021/12/24 08:22:30;;;;;;;4.60;4.40;;;;;;;;;;10286961;28;20908;-81
2021/12/24 08:27:31;;;;;;;4.63;4.32;;;;;;;;;;10253164;28;20744;-81
2021/12/24 08:32:37;;;;;;;3.72;3.45;;;;;;;;;;10262957;28;20224;-82
2021/12/24 08:37:39;;;;;;;3.05;2.95;;;;;;;;;;10260166;28;20198;-81
2021/12/24 08:42:40;;;;;;;2.95;2.85;;;;;;;;;;10258512;28;20981;-82
2021/12/24 08:47:41;;;;;;;3.40;3.20;;;;;;;;;;10250674;28;21465;-81
2021/12/24 08:52:44;;;;;;;3.10;3.00;;;;;;;;;;10275550;28;20713;-80
2021/12/24 08:57:45;;;;;;;3.70;3.50;;;;;;;;;;10256937;28;20205;-81
2021/12/24 09:02:47;;;;;;;3.58;3.47;;;;;;;;;;10267082;28;20232;-81
2021/12/24 09:07:48;;;;;;;3.58;3.38;;;;;;;;;;10275703;28;20332;-81
2021/12/24 09:12:49;;;;;;;3.40;3.30;;;;;;;;;;10288030;28;20196;-81
2021/12/24 09:17:50;;;;;;;3.00;2.72;;;;;;;;;;10278905;28;20240;-82
2021/12/24 09:22:53;;;;;;;3.08;2.97;;;;;;;;;;10298653;28;20264;-81
2021/12/24 09:28:19;;;;;;;3.15;3.05;;;;;;;;;;10304128;28;20228;-81
2021/12/24 09:33:45;;;;;;;4.43;4.13;;;;;;;;;;10290144;28;20714;-82
2021/12/24 09:39:11;;;;;;;4.82;4.38;;;;;;;;;;10307300;28;20209;-82
2021/12/24 09:44:37;;;;;;;5.22;4.93;;;;;;;;;;10294269;28;20336;-82
2021/12/24 09:50:04;;;;;;;4.78;4.47;;;;;;;;;;10293378;28;20212;-83
2021/12/24 09:55:31;;;;;;;4.53;4.25;;;;;;;;;;10295364;28;21335;-82
2021/12/24 10:00:57;;;;;;;5.13;4.82;;;;;;;;;;10291118;28;20217;-83
2021/12/24 10:06:23;;;;;;;6.43;5.82;;;;;;;;;;10307251;28;20898;-81
2021/12/24 10:11:51;;;;;;;8.23;5.32;;;;;;;;;;10284738;28;20213;-81
2021/12/24 10:16:54;;;;;;;8.45;6.47;;;;;;;;;;10243348;28;20221;-82
2021/12/24 10:22:03;;;;;;;7.30;6.60;;;;;;;;;;10293746;28;20223;-81
2021/12/24 10:27:04;;;;;;;6.32;5.82;;;;;;;;;;10292757;28;20211;-82
2021/12/24 10:32:14;;;;;;;7.03;6.40;;;;;;;;;;10297645;28;20217;-81
2021/12/24 10:37:22;;;;;;;8.65;5.95;;;;;;;;;;10301694;28;20784;-81
2021/12/24 10:42:23;;;;;;;7.68;6.90;;;;;;;;;;10300487;28;20221;-80
2021/12/24 10:47:26;;;;;;;8.50;7.20;;;;;;;;;;10300564;28;20779;-80
2021/12/24 10:52:45;;;;;;;11.00;8.13;;;;;;;;;;10305158;28;20205;-80
2021/12/24 10:57:47;;;;;;;11.68;8.70;;;;;;;;;;10282075;28;20212;-80
2021/12/24 11:02:51;;;;;;;11.80;8.82;;;;;;;;;;10297243;28;20320;-81
2021/12/24 11:07:52;;;;;;;7.95;7.15;;;;;;;;;;10291963;28;20205;-83
2021/12/24 11:12:55;;;;;;;9.25;7.35;;;;;;;;;;10292120;28;20197;-82
2021/12/24 11:17:58;;;;;;;7.63;5.05;;;;;;;;;;10286927;28;20202;-79
2021/12/24 11:23:01;;;;;;;4.63;4.22;;;;;;;;;;10292345;28;20205;-81
2021/12/24 11:28:03;;;;;;;4.75;3.67;;;;;;;;;;10287782;28;20220;-81
2021/12/24 11:33:04;;;;;;;4.20;3.83;;;;;;;;;;10278693;28;20225;-81
2021/12/24 11:38:06;;;;;;;3.13;2.92;;;;;;;;;;10278034;28;20216;-80
2021/12/24 11:43:07;;;;;;;4.95;4.13;;;;;;;;;;10291370;28;20212;-81
2021/12/24 11:48:08;;;;;;;3.00;2.90;;;;;;;;;;10283604;28;20292;-81
2021/12/24 11:53:11;;;;;;;3.72;3.45;;;;;;;;;;10290930;28;20204;-82
2021/12/24 11:58:23;;;;;;;3.58;3.28;;;;;;;;;;10290464;28;20213;-80
2021/12/24 12:03:29;;;;;;;3.40;3.10;;;;;;;;;;10284941;28;20915;-80
2021/12/24 12:08:33;;;;;;;2.40;2.30;;;;;;;;;;10283083;28;20739;-79
2021/12/24 12:13:39;;;;;;;0.30;0.30;;;;;;;;;;10287979;28;21191;-83
2021/12/24 12:18:46;;;;;;;1.98;0.20;;;;;;;;;;10286356;28;20712;-85
2021/12/24 12:29:18;;;;;;;0.40;0.35;;;;;;;;;;10273843;28;20293;-84
2021/12/24 12:34:41;;;;;;;0.40;0.40;;;;;;;;;;10288661;28;20327;-83
2021/12/24 12:39:42;;;;;;;1.58;0.38;;;;;;;;;;10286093;28;20229;-82
2021/12/24 12:44:46;;;;;;;1.40;1.40;;;;;;;;;;10282144;28;20216;-84
2021/12/24 12:49:47;;;;;;;0.90;0.90;;;;;;;;;;10270968;28;20201;-84
2021/12/24 12:54:50;;;;;;;0.30;0.30;;;;;;;;;;10264871;28;20221;-82
2021/12/24 13:00:12;;;;;;;0.80;0.22;;;;;;;;;;10280207;28;20227;-82
2021/12/24 13:05:13;;;;;;;0.32;0.32;;;;;;;;;;10282209;28;20217;-82
2021/12/24 13:10:18;;;;;;;0.40;0.40;;;;;;;;;;10268344;28;20204;-83
2021/12/24 13:15:20;;;;;;;0.60;0.60;;;;;;;;;;10281423;28;20197;-82
2021/12/24 13:20:44;;;;;;;0.32;0.32;;;;;;;;;;10267060;28;20217;-82
2021/12/24 13:25:44;;;;;;;0.60;0.38;;;;;;;;;;10286553;28;20227;-82
2021/12/24 13:30:46;;;;;;;0.30;0.30;;;;;;;;;;10289018;28;20220;-81
2021/12/24 13:35:48;;;;;;;0.30;0.30;;;;;;;;;;10280262;28;20200;-82
2021/12/24 13:40:49;;;;;;;0.30;0.30;;;;;;;;;;10285850;28;21230;-83
2021/12/24 13:45:52;;;;;;;0.30;0.20;;;;;;;;;;10268683;28;20204;-83
2021/12/24 13:55:59;;;;;;;0.50;0.50;;;;;;;;;;10286142;28;20252;-83
2021/12/24 14:01:01;;;;;;;0.60;0.60;;;;;;;;;;10285837;28;20323;-82
2021/12/24 14:06:04;;;;;;;0.30;0.30;;;;;;;;;;10287783;28;20284;-82
2021/12/24 14:11:10;;;;;;;0.30;0.30;;;;;;;;;;10284664;28;21163;-83
2021/12/24 14:16:20;;;;;;;0.98;0.50;;;;;;;;;;10290685;28;21566;-83
2021/12/24 14:26:24;;;;;;;0.55;0.55;;;;;;;;;;10292008;28;20267;-84
2021/12/24 14:31:25;;;;;;;0.50;0.50;;;;;;;;;;10296660;28;20215;-85
2021/12/24 14:36:26;;;;;;;0.50;0.50;;;;;;;;;;10258969;28;20204;-83
2021/12/24 14:41:27;;;;;;;0.60;0.60;;;;;;;;;;10294196;28;20749;-83
2021/12/24 14:46:28;;;;;;;0.50;0.50;;;;;;;;;;10289544;28;20198;-83
2021/12/24 14:51:29;;;;;;;1.15;0.80;;;;;;;;;;10273673;28;20201;-82
2021/12/24 14:56:36;;;;;;;0.60;0.60;;;;;;;;;;10294276;28;20197;-82
2021/12/24 15:01:42;;;;;;;0.57;0.57;;;;;;;;;;10295335;28;20229;-82
2021/12/24 15:06:48;;;;;;;1.58;1.58;;;;;;;;;;10294092;28;20384;-83
2021/12/24 15:11:50;;;;;;;1.00;1.00;;;;;;;;;;10293669;28;20200;-83
2021/12/24 15:16:53;;;;;;;0.90;0.90;;;;;;;;;;10270790;28;20204;-83
2021/12/24 15:21:55;;;;;;;0.75;0.75;;;;;;;;;;10273409;28;20224;-82
2021/12/24 15:26:57;;;;;;;0.70;0.70;;;;;;;;;;10274716;28;20217;-83
2021/12/24 15:31:59;;;;;;;4.05;3.72;;;;;;;;;;10294008;28;20228;-84
2021/12/24 15:37:00;;;;;;;4.40;4.07;;;;;;;;;;10285161;28;20197;-81
2021/12/24 15:42:01;;;;;;;1.60;1.60;;;;;;;;;;10289589;28;20641;-82
2021/12/24 15:47:02;;;;;;;4.47;4.20;;;;;;;;;;10285786;28;20193;-81
2021/12/24 15:52:03;;;;;;;2.15;2.15;;;;;;;;;;10293668;28;20206;-81
2021/12/24 15:57:05;;;;;;;1.80;1.77;;;;;;;;;;10293794;28;20200;-81
2021/12/24 16:02:07;;;;;;;1.60;1.60;;;;;;;;;;10293866;28;20247;-81
2021/12/24 16:07:08;;;;;;;2.72;2.38;;;;;;;;;;10272296;28;20208;-81
2021/12/24 16:12:10;;;;;;;3.15;3.05;;;;;;;;;;10279757;28;20208;-81
2021/12/24 16:17:11;;;;;;;4.63;4.32;;;;;;;;;;10290119;28;20222;-80
2021/12/24 16:22:13;;;;;;;3.97;3.65;;;;;;;;;;10287647;28;20227;-80
2021/12/24 16:27:14;;;;;;;5.28;4.82;;;;;;;;;;10286963;28;20692;-81
2021/12/24 16:32:15;;;;;;;9.55;6.28;;;;;;;;;;10275134;28;20224;-81
2021/12/24 16:37:16;;;;;;;4.95;4.63;;;;;;;;;;10286730;28;20224;-81
2021/12/24 16:42:18;;;;;;;3.90;3.80;;;;;;;;;;10269823;28;20732;-81
2021/12/24 16:47:19;;;;;;;4.80;4.55;;;;;;;;;;10295023;28;20208;-81
2021/12/24 16:52:20;;;;;;;6.75;6.20;;;;;;;;;;10289517;28;20205;-81
2021/12/24 16:57:21;;;;;;;4.15;3.95;;;;;;;;;;10290999;28;20209;-81
2021/12/24 17:02:23;;;;;;;4.28;3.97;;;;;;;;;;10289097;28;20613;-81
2021/12/24 17:07:24;;;;;;;3.85;3.75;;;;;;;;;;10274205;28;20212;-81
2021/12/24 17:12:26;;;;;;;3.92;3.72;;;;;;;;;;10279782;28;20196;-80
2021/12/24 17:17:27;;;;;;;4.15;3.88;;;;;;;;;;10303370;28;20414;-80
2021/12/24 17:22:29;;;;;;;4.30;4.10;;;;;;;;;;10284250;28;20212;-80
2021/12/24 17:27:30;;;;;;;5.07;4.78;;;;;;;;;;10293626;28;20212;-80
2021/12/24 17:32:31;;;;;;;4.90;4.60;;;;;;;;;;10298303;28;20231;-79
2021/12/24 17:37:35;;;;;;;5.07;4.88;;;;;;;;;;10304777;28;20197;-81
2021/12/24 17:42:36;;;;;;;6.67;6.07;;;;;;;;;;10301594;28;20233;-81
2021/12/24 17:47:37;;;;;;;7.32;6.65;;;;;;;;;;10299942;28;20225;-81
2021/12/24 17:52:39;;;;;;;6.32;5.80;;;;;;;;;;10281679;28;20872;-81
2021/12/24 17:57:41;;;;;;;6.85;6.22;;;;;;;;;;10302715;28;20205;-82
2021/12/24 18:02:42;;;;;;;7.43;6.68;;;;;;;;;;10296165;28;20235;-82
2021/12/24 18:07:44;;;;;;;9.83;8.57;;;;;;;;;;10264097;28;20314;-81
2021/12/24 18:12:46;;;;;;;11.48;9.20;;;;;;;;;;10282715;28;20235;-81
2021/12/24 18:17:48;;;;;;;12.63;9.50;;;;;;;;;;10303258;28;20194;-81
2021/12/24 18:22:49;;;;;;;13.27;10.05;;;;;;;;;;10281360;28;20231;-81
2021/12/24 18:27:51;;;;;;;10.48;9.13;;;;;;;;;;10277447;28;20220;-82
2021/12/24 18:32:52;;;;;;;11.18;8.52;;;;;;;;;;10296187;28;20771;-82
2021/12/24 18:42:57;;;;;;;6.27;5.67;;;;;;;;;;10300939;28;20217;-81
2021/12/24 18:47:58;;;;;;;5.28;4.45;;;;;;;;;;10284958;28;20211;-83
2021/12/24 18:53:00;;;;;;;3.87;3.67;;;;;;;;;;10303135;28;20209;-82
2021/12/24 18:58:01;;;;;;;4.95;3.95;;;;;;;;;;10288688;28;20208;-83
2021/12/24 19:03:02;;;;;;;2.47;2.38;;;;;;;;;;10284567;28;20240;-83
2021/12/24 19:08:04;;;;;;;4.45;2.55;;;;;;;;;;10303753;28;20240;-82
2021/12/24 19:13:06;;;;;;;3.25;3.05;;;;;;;;;;10298552;28;20201;-81
2021/12/24 19:18:07;;;;;;;4.97;3.65;;;;;;;;;;10280500;28;20234;-81
2021/12/24 19:23:08;;;;;;;5.97;3.85;;;;;;;;;;10293648;28;20336;-83
2021/12/24 19:28:10;;;;;;;5.85;4.07;;;;;;;;;;10278807;28;20729;-83
2021/12/24 19:33:11;;;;;;;6.80;4.38;;;;;;;;;;10276156;28;20817;-82
2021/12/24 19:38:13;;;;;;;6.50;4.23;;;;;;;;;;10295810;28;20206;-82
2021/12/24 19:43:14;;;;;;;4.13;3.73;;;;;;;;;;10287774;28;20212;-82
2021/12/24 19:48:15;;;;;;;2.88;2.58;;;;;;;;;;10287923;28;20235;-83
2021/12/24 19:53:16;;;;;;;2.03;1.92;;;;;;;;;;10274612;28;21041;-81
2021/12/24 19:58:18;;;;;;;1.33;1.23;;;;;;;;;;10279075;28;20296;-82
2021/12/24 20:03:19;;;;;;;1.17;1.13;;;;;;;;;;10277324;28;20380;-82
2021/12/24 20:08:20;;;;;;;1.50;1.40;;;;;;;;;;10296778;28;20201;-82
2021/12/24 20:13:21;;;;;;;3.10;1.90;;;;;;;;;;10284274;28;20202;-82
2021/12/24 20:18:22;;;;;;;1.15;1.15;;;;;;;;;;10279909;28;20224;-82
2021/12/24 20:23:23;;;;;;;1.10;1.10;;;;;;;;;;10306607;28;21057;-82
2021/12/24 20:28:25;;;;;;;0.67;0.67;;;;;;;;;;10301608;28;20268;-82
2021/12/24 20:33:26;;;;;;;1.23;1.00;;;;;;;;;;10283819;28;20228;-82
2021/12/24 20:38:28;;;;;;;0.70;0.70;;;;;;;;;;10307372;28;20665;-81
2021/12/24 20:43:29;;;;;;;0.67;0.67;;;;;;;;;;10277558;28;20697;-83
2021/12/24 20:48:31;;;;;;;0.93;0.93;;;;;;;;;;10292606;28;20198;-82
2021/12/24 20:53:32;;;;;;;0.60;0.60;;;;;;;;;;10298363;28;20201;-81
2021/12/24 20:58:33;;;;;;;0.87;0.87;;;;;;;;;;10300945;28;20264;-81
2021/12/24 21:03:34;;;;;;;0.80;0.80;;;;;;;;;;10276620;28;20248;-82
2021/12/24 21:08:36;;;;;;;1.93;0.70;;;;;;;;;;10292562;28;20196;-81
2021/12/24 21:13:37;;;;;;;1.30;1.00;;;;;;;;;;10294616;28;20200;-81
2021/12/24 21:18:38;;;;;;;2.35;0.93;;;;;;;;;;10300261;28;20212;-82
2021/12/24 21:23:43;;;;;;;0.70;0.70;;;;;;;;;;10287183;28;20197;-81
2021/12/24 21:28:44;;;;;;;2.57;0.70;;;;;;;;;;10269615;28;20266;-82
2021/12/24 21:33:45;;;;;;;0.43;0.40;;;;;;;;;;10274844;28;20226;-81
2021/12/24 21:38:46;;;;;;;1.23;0.40;;;;;;;;;;10289690;28;20300;-81
2021/12/24 21:43:47;;;;;;;0.23;0.23;;;;;;;;;;10287822;28;20198;-80
2021/12/24 21:48:49;;;;;;;0.30;0.30;;;;;;;;;;10289969;28;20202;-80
2021/12/24 21:53:50;;;;;;;2.38;0.20;;;;;;;;;;10289838;28;20790;-79
2021/12/24 21:58:51;;;;;;;0.27;0.27;;;;;;;;;;10294152;28;20225;-79
2021/12/24 22:03:53;;;;;;;1.50;0.30;;;;;;;;;;10291322;28;20225;-79
2021/12/24 22:08:55;;;;;;;0.30;0.30;;;;;;;;;;10272765;28;20289;-80
2021/12/24 22:13:57;;;;;;;2.10;0.20;;;;;;;;;;10289857;28;21098;-79
2021/12/24 22:18:58;;;;;;;0.53;0.30;;;;;;;;;;10290482;28;20224;-80
2021/12/24 22:23:59;;;;;;;0.53;0.20;;;;;;;;;;10269390;28;20752;-79
2021/12/24 22:29:00;;;;;;;0.30;0.30;;;;;;;;;;10289915;28;20220;-79
2021/12/24 22:34:01;;;;;;;0.83;0.20;;;;;;;;;;10289223;28;20221;-79
2021/12/24 22:39:03;;;;;;;0.43;0.40;;;;;;;;;;10269970;28;20244;-79
2021/12/24 22:44:04;;;;;;;1.83;0.30;;;;;;;;;;10281563;28;20207;-78
2021/12/24 22:49:06;;;;;;;0.20;0.20;;;;;;;;;;10263990;28;20257;-79
2021/12/24 22:54:07;;;;;;;2.47;0.30;;;;;;;;;;10285139;28;20624;-78
2021/12/24 22:59:08;;;;;;;0.20;0.20;;;;;;;;;;10280931;28;20276;-78
2021/12/24 23:04:09;;;;;;;0.37;0.20;;;;;;;;;;10293143;28;20245;-78
2021/12/24 23:09:10;;;;;;;0.20;0.10;;;;;;;;;;10276910;28;20205;-78
2021/12/24 23:14:11;;;;;;;0.47;0.17;;;;;;;;;;10260807;28;20201;-78
2021/12/24 23:19:16;;;;;;;0.10;0.10;;;;;;;;;;10274185;28;20215;-77
2021/12/24 23:24:17;;;;;;;0.17;0.17;;;;;;;;;;10278416;28;20250;-77
2021/12/24 23:29:18;;;;;;;0.17;0.10;;;;;;;;;;10278206;28;20232;-77
2021/12/24 23:34:19;;;;;;;0.10;0.10;;;;;;;;;;10270822;28;20318;-77
2021/12/24 23:39:20;;;;;;;0.30;0.10;;;;;;;;;;10274767;28;20225;-79
2021/12/24 23:44:21;;;;;;;0.10;0.10;;;;;;;;;;10271842;28;20257;-76
2021/12/24 23:49:23;;;;;;;1.03;0.20;;;;;;;;;;10274116;28;20212;-76
2021/12/24 23:54:24;;;;;;;1.87;0.10;;;;;;;;;;10271619;28;20269;-77
2021/12/24 23:59:25;;;;;;;2.27;0.17;;;;;;;;;;10271642;28;20692;-77
